createdAt,value
2023-01-13T00:01:31.733Z,10.09
2023-01-13T00:04:01.056Z,10.11
2023-01-13T00:06:29.779Z,9.95
2023-01-13T00:08:57.792Z,10.18
2023-01-13T00:11:26.282Z,9.93
2023-01-13T00:13:54.195Z,9.87
2023-01-13T00:16:23.439Z,9.92
2023-01-13T00:18:52.110Z,9.91
2023-01-13T00:21:23.001Z,9.97
2023-01-13T00:23:52.759Z,9.78
2023-01-13T00:26:23.327Z,9.96
2023-01-13T00:28:52.773Z,9.86
2023-01-13T00:31:23.342Z,9.85
2023-01-13T00:33:51.312Z,9.79
2023-01-13T00:36:22.563Z,9.83
2023-01-13T00:38:50.627Z,9.76
2023-01-13T00:41:20.675Z,9.87
2023-01-13T00:43:48.856Z,9.92
2023-01-13T00:46:19.768Z,9.95
2023-01-13T00:48:49.776Z,10.13
2023-01-13T00:51:20.479Z,10.11
2023-01-13T00:53:51.130Z,9.90
2023-01-13T00:56:38.077Z,10.11
2023-01-13T00:59:06.694Z,10.05
2023-01-13T01:01:34.563Z,9.87
2023-01-13T01:04:03.830Z,9.76
2023-01-13T01:06:31.878Z,9.92
2023-01-13T01:08:59.944Z,9.70
2023-01-13T01:11:30.524Z,9.71
2023-01-13T01:14:03.114Z,9.39
2023-01-13T01:16:34.277Z,9.50
2023-01-13T01:19:05.010Z,9.37
2023-01-13T01:21:33.860Z,9.40
2023-01-13T01:24:04.883Z,9.29
2023-01-13T01:26:33.884Z,9.23
2023-01-13T01:29:02.565Z,9.27
2023-01-13T01:31:32.873Z,9.21
2023-01-13T01:34:03.622Z,9.28
2023-01-13T01:36:31.697Z,9.34
2023-01-13T01:39:00.964Z,9.29
2023-01-13T01:41:32.886Z,9.51
2023-01-13T01:44:06.996Z,9.53
2023-01-13T01:46:38.244Z,9.55
2023-01-13T01:49:19.098Z,9.49
2023-01-13T01:51:54.818Z,9.57
2023-01-13T01:54:29.575Z,9.41
2023-01-13T01:56:57.581Z,9.52
2023-01-13T01:59:29.090Z,9.34
2023-01-13T02:01:57.203Z,9.39
2023-01-13T02:04:34.674Z,9.38
2023-01-13T02:07:04.672Z,9.41
2023-01-13T02:09:34.137Z,9.39
2023-01-13T02:12:19.549Z,9.29
2023-01-13T02:14:48.070Z,9.26
2023-01-13T02:17:39.383Z,9.37
2023-01-13T02:20:55.160Z,9.26
2023-01-13T02:24:22.512Z,9.27
2023-01-13T02:27:42.057Z,9.15
2023-01-13T02:30:46.685Z,9.20
2023-01-13T02:33:39.032Z,9.27
2023-01-13T02:36:19.377Z,9.45
2023-01-13T02:38:55.722Z,9.40
2023-01-13T02:41:50.217Z,9.15
2023-01-13T02:44:27.842Z,9.43
2023-01-13T02:47:04.902Z,9.29
2023-01-13T02:49:38.803Z,9.20
2023-01-13T02:52:15.955Z,9.16
2023-01-13T02:54:53.648Z,9.34
2023-01-13T02:57:25.084Z,9.12
2023-01-13T02:59:56.591Z,9.13
2023-01-13T03:02:27.163Z,9.26
2023-01-13T03:04:57.539Z,9.30
2023-01-13T03:07:53.420Z,9.44
2023-01-13T03:10:35.503Z,9.44
2023-01-13T03:13:22.117Z,9.25
2023-01-13T03:16:06.116Z,9.34
2023-01-13T03:18:49.677Z,9.33
2023-01-13T03:21:26.722Z,9.36
2023-01-13T03:24:04.479Z,9.49
2023-01-13T03:26:41.903Z,9.50
2023-01-13T03:29:18.510Z,9.41
2023-01-13T03:31:58.335Z,9.29
2023-01-13T03:34:37.820Z,9.35
2023-01-13T03:37:10.115Z,9.28
2023-01-13T03:39:46.984Z,9.25
2023-01-13T03:42:19.659Z,9.20
2023-01-13T03:44:54.881Z,9.37
2023-01-13T03:47:32.395Z,9.27
2023-01-13T03:50:07.513Z,9.14
2023-01-13T03:52:42.441Z,9.32
2023-01-13T03:55:15.918Z,9.21
2023-01-13T03:57:54.430Z,9.23
2023-01-13T04:00:28.022Z,9.56
2023-01-13T04:03:06.316Z,9.37
2023-01-13T04:05:40.839Z,9.43
2023-01-13T04:08:21.022Z,9.69
2023-01-13T04:10:58.805Z,9.51
2023-01-13T04:13:33.744Z,9.41
2023-01-13T04:16:01.924Z,9.52
2023-01-13T04:18:31.836Z,9.39
2023-01-13T04:21:02.928Z,9.48
2023-01-13T04:23:31.067Z,9.48
2023-01-13T04:25:58.890Z,9.35
2023-01-13T04:28:27.503Z,9.33
2023-01-13T04:30:55.323Z,9.39
2023-01-13T04:33:23.129Z,9.30
2023-01-13T04:35:52.509Z,9.30
2023-01-13T04:38:22.975Z,9.39
2023-01-13T04:40:50.942Z,9.25
2023-01-13T04:43:18.767Z,9.32
2023-01-13T04:45:46.614Z,9.28
2023-01-13T04:48:14.512Z,9.17
2023-01-13T04:50:42.856Z,9.22
2023-01-13T04:53:10.970Z,9.02
2023-01-13T04:55:40.363Z,9.02
2023-01-13T04:58:11.157Z,9.11
2023-01-13T05:00:39.209Z,9.02
2023-01-13T05:03:07.291Z,8.91
2023-01-13T05:05:35.629Z,9.02
2023-01-13T05:08:03.663Z,9.08
2023-01-13T05:10:31.806Z,8.98
2023-01-13T05:13:19.068Z,8.99
2023-01-13T05:16:06.730Z,9.13
2023-01-13T05:18:34.939Z,9.07
2023-01-13T05:21:02.793Z,9.13
2023-01-13T05:23:47.834Z,9.08
2023-01-13T05:26:15.584Z,8.95
2023-01-13T05:28:44.743Z,9.13
2023-01-13T05:31:14.822Z,9.11
2023-01-13T05:33:42.820Z,9.13
2023-01-13T05:36:11.399Z,9.03
2023-01-13T05:38:39.168Z,8.90
2023-01-13T05:41:23.819Z,8.88
2023-01-13T05:43:53.071Z,8.63
2023-01-13T05:46:20.941Z,8.90
2023-01-13T05:48:48.659Z,8.97
2023-01-13T05:51:16.635Z,8.86
2023-01-13T05:53:44.453Z,8.74
2023-01-13T05:56:12.697Z,8.74
2023-01-13T05:58:40.732Z,8.73
2023-01-13T06:01:11.326Z,8.69
2023-01-13T06:03:39.371Z,8.60
2023-01-13T06:06:08.913Z,8.86
2023-01-13T06:08:39.450Z,8.61
2023-01-13T06:11:07.731Z,8.70
2023-01-13T06:13:35.894Z,8.63
2023-01-13T06:16:03.785Z,8.58
2023-01-13T06:18:33.055Z,8.44
2023-01-13T06:21:01.060Z,8.37
2023-01-13T06:23:34.824Z,8.63
2023-01-13T06:26:14.269Z,8.61
2023-01-13T06:28:42.035Z,8.67
2023-01-13T06:31:12.356Z,8.73
2023-01-13T06:33:49.922Z,8.96
2023-01-13T06:36:23.409Z,8.79
2023-01-13T06:38:57.174Z,8.87
2023-01-13T06:41:41.408Z,8.98
2023-01-13T06:44:09.274Z,8.79
2023-01-13T06:46:37.899Z,8.95
2023-01-13T06:49:07.671Z,8.89
2023-01-13T06:51:35.538Z,9.00
2023-01-13T06:54:03.394Z,8.93
2023-01-13T06:56:31.294Z,8.90
2023-01-13T06:58:59.165Z,9.07
2023-01-13T07:01:27.269Z,9.05
2023-01-13T07:03:55.155Z,9.13
2023-01-13T07:06:24.488Z,8.87
2023-01-13T07:08:52.740Z,9.03
2023-01-13T07:11:20.521Z,9.12
2023-01-13T07:14:06.380Z,9.10
2023-01-13T07:16:34.347Z,9.18
2023-01-13T07:19:02.766Z,9.18
2023-01-13T07:21:33.723Z,9.18
2023-01-13T07:24:01.583Z,9.16
2023-01-13T07:26:29.457Z,9.22
2023-01-13T07:28:57.283Z,9.16
2023-01-13T07:31:25.949Z,9.15
2023-01-13T07:33:53.771Z,8.93
2023-01-13T07:36:21.626Z,8.98
2023-01-13T07:38:51.351Z,8.90
2023-01-13T07:41:37.871Z,8.93
2023-01-13T07:44:06.656Z,9.13
2023-01-13T07:46:40.810Z,9.20
2023-01-13T07:49:09.749Z,9.07
2023-01-13T07:51:40.081Z,8.98
2023-01-13T07:54:09.314Z,9.02
2023-01-13T07:56:37.222Z,9.20
2023-01-13T07:59:05.049Z,9.22
2023-01-13T08:01:33.247Z,9.33
2023-01-13T08:04:01.907Z,9.04
2023-01-13T08:06:29.748Z,9.32
2023-01-13T08:08:57.629Z,9.44
2023-01-13T08:11:26.957Z,9.33
2023-01-13T08:13:58.345Z,9.12
2023-01-13T08:16:26.823Z,9.05
2023-01-13T08:18:54.998Z,9.16
2023-01-13T08:21:22.961Z,9.29
2023-01-13T08:23:50.769Z,9.08
2023-01-13T08:26:20.123Z,9.27
2023-01-13T08:28:49.257Z,9.24
2023-01-13T08:31:19.825Z,9.10
2023-01-13T08:33:48.086Z,9.23
2023-01-13T08:36:16.449Z,9.41
2023-01-13T08:38:44.826Z,9.29
2023-01-13T08:41:15.780Z,9.32
2023-01-13T08:43:43.823Z,9.29
2023-01-13T08:46:13.349Z,9.32
2023-01-13T08:48:41.303Z,9.09
2023-01-13T08:51:10.825Z,9.31
2023-01-13T08:53:38.820Z,9.21
2023-01-13T08:56:10.828Z,9.18
2023-01-13T08:58:38.836Z,9.37
2023-01-13T09:01:08.509Z,9.41
2023-01-13T09:03:39.164Z,9.02
2023-01-13T09:06:07.605Z,9.25
2023-01-13T09:08:35.594Z,8.92
2023-01-13T09:11:24.070Z,8.79
2023-01-13T09:13:51.089Z,9.06
2023-01-13T09:16:19.456Z,8.78
2023-01-13T09:18:48.575Z,8.96
2023-01-13T09:21:19.684Z,9.06
2023-01-13T09:23:47.533Z,8.83
2023-01-13T09:26:21.009Z,8.80
2023-01-13T09:28:49.358Z,8.60
2023-01-13T09:31:17.328Z,8.45
2023-01-13T09:34:02.611Z,8.34
2023-01-13T09:36:32.307Z,8.36
2023-01-13T09:39:00.299Z,8.22
2023-01-13T09:41:53.078Z,8.46
2023-01-13T09:44:32.503Z,7.91
2023-01-13T09:47:08.248Z,8.06
2023-01-13T09:49:41.612Z,8.03
2023-01-13T09:52:19.302Z,8.05
2023-01-13T09:54:56.591Z,8.15
2023-01-13T09:57:30.945Z,8.12
2023-01-13T09:59:59.950Z,8.27
2023-01-13T10:02:59.239Z,8.26
2023-01-13T10:05:37.488Z,8.18
2023-01-13T10:08:14.655Z,8.13
2023-01-13T10:10:47.006Z,8.45
2023-01-13T10:13:21.949Z,8.57
2023-01-13T10:16:28.182Z,8.58
2023-01-13T10:19:11.509Z,8.55
2023-01-13T10:22:09.328Z,8.76
2023-01-13T10:25:05.567Z,8.64
2023-01-13T10:27:36.265Z,8.76
2023-01-13T10:30:20.870Z,8.63
2023-01-13T10:32:55.968Z,8.50
2023-01-13T10:35:53.963Z,8.69
2023-01-13T10:38:26.584Z,8.79
2023-01-13T10:40:59.111Z,8.60
2023-01-13T10:43:29.138Z,8.49
2023-01-13T10:46:03.123Z,8.65
2023-01-13T10:48:41.937Z,8.58
2023-01-13T10:51:25.273Z,8.69
2023-01-13T10:54:01.207Z,8.75
2023-01-13T10:56:34.262Z,8.71
2023-01-13T10:59:17.540Z,8.89
2023-01-13T11:02:01.213Z,8.66
2023-01-13T11:04:37.006Z,8.76
2023-01-13T11:07:17.665Z,8.90
2023-01-13T11:10:27.685Z,9.01
2023-01-13T11:13:11.312Z,9.04
2023-01-13T11:15:47.727Z,8.99
2023-01-13T11:18:27.685Z,8.75
2023-01-13T11:20:58.511Z,8.98
2023-01-13T11:23:35.189Z,9.01
2023-01-13T11:26:13.296Z,8.85
2023-01-13T11:28:54.329Z,8.96
2023-01-13T11:31:29.986Z,8.85
2023-01-13T11:34:05.871Z,8.98
2023-01-13T11:36:41.290Z,9.00
2023-01-13T11:39:24.744Z,8.73
2023-01-13T11:42:11.326Z,8.90
2023-01-13T11:44:47.207Z,8.78
2023-01-13T11:47:17.423Z,8.96
2023-01-13T11:49:48.519Z,8.82
2023-01-13T11:52:25.154Z,9.03
2023-01-13T11:55:26.659Z,8.87
2023-01-13T11:58:50.709Z,8.79
2023-01-13T12:01:50.774Z,8.87
2023-01-13T12:04:29.109Z,9.09
2023-01-13T12:07:14.703Z,9.23
2023-01-13T12:10:04.145Z,9.06
2023-01-13T12:12:52.479Z,9.19
2023-01-13T12:15:49.757Z,9.09
2023-01-13T12:18:41.318Z,9.27
2023-01-13T12:21:21.686Z,9.25
2023-01-13T12:24:05.789Z,9.27
2023-01-13T12:26:40.841Z,9.11
2023-01-13T12:29:18.783Z,9.09
2023-01-13T12:31:50.329Z,9.10
2023-01-13T12:34:39.971Z,8.96
2023-01-13T12:37:18.087Z,8.96
2023-01-13T12:40:02.938Z,9.01
2023-01-13T12:43:00.074Z,9.14
2023-01-13T12:45:31.230Z,9.16
2023-01-13T12:48:01.353Z,9.16
2023-01-13T12:50:43.576Z,9.22
2023-01-13T12:53:35.046Z,9.20
2023-01-13T12:56:26.705Z,9.29
2023-01-13T12:59:14.617Z,9.32
2023-01-13T13:01:42.596Z,9.38
2023-01-13T13:04:13.928Z,9.23
2023-01-13T13:06:52.265Z,9.26
2023-01-13T13:09:30.176Z,9.15
2023-01-13T13:12:15.604Z,8.97
2023-01-13T13:15:04.394Z,9.12
2023-01-13T13:18:01.636Z,9.46
2023-01-13T13:21:04.816Z,9.43
2023-01-13T13:23:48.115Z,9.32
2023-01-13T13:26:29.804Z,9.18
2023-01-13T13:29:29.755Z,9.19
2023-01-13T13:32:45.582Z,9.25
2023-01-13T13:35:46.496Z,9.26
2023-01-13T13:38:54.722Z,9.26
2023-01-13T13:41:43.938Z,9.28
2023-01-13T13:44:37.821Z,9.23
2023-01-13T13:47:08.327Z,9.46
2023-01-13T13:49:41.596Z,9.30
2023-01-13T13:52:18.273Z,9.22
2023-01-13T13:54:51.935Z,9.43
2023-01-13T13:57:28.049Z,9.22
2023-01-13T14:00:00.015Z,9.30
2023-01-13T14:02:32.116Z,9.37
2023-01-13T14:05:20.261Z,9.29
2023-01-13T14:07:51.303Z,9.32
2023-01-13T14:10:24.724Z,9.56
2023-01-13T14:12:54.027Z,9.36
2023-01-13T14:15:33.190Z,9.43
2023-01-13T14:18:05.129Z,9.35
2023-01-13T14:20:34.511Z,9.56
2023-01-13T14:23:05.227Z,9.47
2023-01-13T14:25:39.603Z,9.58
2023-01-13T14:28:25.964Z,9.69
2023-01-13T14:30:56.903Z,9.57
2023-01-13T14:33:36.192Z,9.56
2023-01-13T14:36:18.731Z,9.79
2023-01-13T14:38:49.447Z,9.83
2023-01-13T14:41:28.721Z,9.60
2023-01-13T14:44:02.524Z,9.64
2023-01-13T14:46:39.218Z,9.72
2023-01-13T14:49:24.785Z,9.59
2023-01-13T14:51:54.054Z,9.54
2023-01-13T14:54:47.722Z,9.68
2023-01-13T14:57:25.490Z,9.63
2023-01-13T15:00:18.833Z,9.58
2023-01-13T15:02:49.623Z,9.77
2023-01-13T15:05:47.385Z,9.75
2023-01-13T15:08:30.642Z,9.49
2023-01-13T15:11:01.059Z,9.56
2023-01-13T15:13:37.113Z,9.60
2023-01-13T15:16:15.259Z,9.65
2023-01-13T15:18:43.211Z,9.59
2023-01-13T15:21:11.906Z,9.57
2023-01-13T15:23:41.209Z,9.58
2023-01-13T15:26:25.735Z,9.66
2023-01-13T15:28:56.466Z,9.74
2023-01-13T15:31:27.026Z,9.61
2023-01-13T15:33:55.297Z,9.30
2023-01-13T15:36:27.692Z,9.33
2023-01-13T15:38:56.389Z,9.06
2023-01-13T15:41:43.163Z,8.47
2023-01-13T15:44:30.471Z,8.71
2023-01-13T15:47:04.015Z,8.21
2023-01-13T15:49:36.372Z,8.31
2023-01-13T15:52:05.758Z,8.60
2023-01-13T15:54:33.719Z,8.73
2023-01-13T15:57:02.029Z,8.56
2023-01-13T15:59:30.180Z,8.68
2023-01-13T16:01:59.283Z,8.85
2023-01-13T16:04:27.063Z,9.03
2023-01-13T16:06:55.293Z,8.89
2023-01-13T16:09:23.533Z,8.99
2023-01-13T16:11:51.470Z,8.91
2023-01-13T16:14:19.198Z,8.74
2023-01-13T16:16:47.022Z,8.92
2023-01-13T16:19:16.215Z,8.77
2023-01-13T16:21:45.300Z,8.55
2023-01-13T16:24:13.035Z,8.81
2023-01-13T16:26:40.929Z,8.78
2023-01-13T16:29:09.507Z,8.88
2023-01-13T16:31:37.856Z,8.79
2023-01-13T16:34:06.898Z,8.80
2023-01-13T16:36:37.567Z,8.82
2023-01-13T16:39:20.010Z,8.92
2023-01-13T16:41:47.926Z,9.03
2023-01-13T16:44:15.686Z,8.87
2023-01-13T16:46:45.420Z,8.80
2023-01-13T16:49:15.879Z,9.04
2023-01-13T16:51:45.440Z,9.40
2023-01-13T16:54:13.332Z,9.10
2023-01-13T16:56:41.066Z,9.20
2023-01-13T16:59:13.554Z,9.34
2023-01-13T17:01:44.819Z,9.22
2023-01-13T17:04:17.986Z,9.15
2023-01-13T17:06:55.392Z,9.16
2023-01-13T17:09:26.429Z,9.14
2023-01-13T17:11:55.119Z,9.11
2023-01-13T17:14:23.641Z,9.18
2023-01-13T17:16:54.684Z,9.20
2023-01-13T17:19:23.823Z,9.18
2023-01-13T17:21:53.008Z,9.19
2023-01-13T17:24:21.593Z,9.23
2023-01-13T17:26:51.680Z,9.18
2023-01-13T17:29:22.783Z,9.16
2023-01-13T17:31:51.872Z,9.12
2023-01-13T17:34:26.850Z,9.17
2023-01-13T17:36:56.173Z,9.02
2023-01-13T17:39:27.460Z,9.08
2023-01-13T17:41:56.166Z,9.03
2023-01-13T17:44:24.383Z,8.96
2023-01-13T17:46:52.494Z,8.88
2023-01-13T17:49:22.083Z,8.75
2023-01-13T17:51:51.344Z,8.80
2023-01-13T17:54:21.621Z,8.80
2023-01-13T17:56:49.536Z,8.72
2023-01-13T17:59:20.443Z,8.78
2023-01-13T18:01:48.409Z,8.90
2023-01-13T18:04:18.523Z,8.82
2023-01-13T18:06:47.036Z,8.88
2023-01-13T18:09:15.338Z,8.82
2023-01-13T18:11:47.083Z,8.82
2023-01-13T18:14:15.206Z,8.86
2023-01-13T18:16:43.045Z,8.86
2023-01-13T18:19:29.367Z,8.84
2023-01-13T18:22:14.720Z,8.99
2023-01-13T18:25:00.042Z,8.99
2023-01-13T18:27:34.564Z,9.03
2023-01-13T18:30:03.896Z,8.77
2023-01-13T18:32:33.967Z,8.58
2023-01-13T18:35:06.501Z,8.85
2023-01-13T18:37:38.405Z,8.54
2023-01-13T18:40:10.833Z,8.58
2023-01-13T18:42:51.861Z,8.51
2023-01-13T18:45:21.540Z,8.53
2023-01-13T18:47:49.378Z,8.72
2023-01-13T18:50:18.722Z,8.60
2023-01-13T18:52:46.842Z,8.44
2023-01-13T18:55:14.749Z,8.63
2023-01-13T18:57:43.946Z,8.77
2023-01-13T19:00:15.200Z,8.63
2023-01-13T19:02:43.369Z,8.60
2023-01-13T19:05:12.536Z,8.75
2023-01-13T19:07:41.012Z,8.63
2023-01-13T19:10:10.539Z,8.69
2023-01-13T19:12:38.346Z,8.72
2023-01-13T19:15:09.741Z,8.41
2023-01-13T19:17:37.722Z,8.50
2023-01-13T19:20:06.740Z,8.31
2023-01-13T19:22:36.017Z,8.22
2023-01-13T19:25:06.041Z,8.20
2023-01-13T19:27:33.833Z,8.06
2023-01-13T19:30:02.654Z,7.87
2023-01-13T19:32:34.092Z,8.01
2023-01-13T19:35:01.905Z,7.93
2023-01-13T19:37:31.381Z,7.78
2023-01-13T19:40:00.308Z,7.69
2023-01-13T19:42:45.972Z,7.81
2023-01-13T19:45:27.597Z,7.59
2023-01-13T19:47:59.134Z,7.75
2023-01-13T19:50:26.970Z,8.06
2023-01-13T19:52:54.853Z,8.19
2023-01-13T19:55:23.504Z,7.89
2023-01-13T19:57:51.298Z,7.87
2023-01-13T20:00:20.885Z,7.98
2023-01-13T20:02:51.724Z,7.97
2023-01-13T20:05:25.862Z,8.12
2023-01-13T20:07:54.191Z,8.17
2023-01-13T20:10:24.167Z,8.34
2023-01-13T20:12:52.131Z,8.28
2023-01-13T20:15:20.225Z,8.50
2023-01-13T20:17:48.564Z,8.44
2023-01-13T20:20:18.811Z,7.89
2023-01-13T20:22:49.575Z,7.91
2023-01-13T20:25:18.663Z,7.89
2023-01-13T20:27:48.849Z,7.90
2023-01-13T20:30:17.172Z,8.07
2023-01-13T20:32:45.629Z,8.12
2023-01-13T20:35:13.868Z,7.70
2023-01-13T20:37:43.511Z,7.89
2023-01-13T20:40:17.777Z,7.62
2023-01-13T20:42:45.099Z,7.58
2023-01-13T20:45:17.617Z,7.68
2023-01-13T20:47:46.643Z,7.50
2023-01-13T20:50:15.926Z,8.17
2023-01-13T20:52:44.816Z,7.83
2023-01-13T20:55:14.570Z,8.12
2023-01-13T20:57:42.594Z,8.08
2023-01-13T21:00:12.363Z,8.43
2023-01-13T21:02:42.077Z,8.62
2023-01-13T21:05:10.153Z,8.69
2023-01-13T21:07:38.188Z,8.48
2023-01-13T21:10:06.992Z,8.29
2023-01-13T21:12:53.911Z,8.62
2023-01-13T21:15:22.761Z,8.64
2023-01-13T21:18:10.853Z,8.80
2023-01-13T21:20:40.554Z,8.53
2023-01-13T21:23:11.223Z,8.62
2023-01-13T21:25:40.120Z,8.72
2023-01-13T21:28:11.477Z,8.51
2023-01-13T21:30:40.092Z,8.82
2023-01-13T21:33:08.245Z,8.69
2023-01-13T21:35:40.105Z,8.75
2023-01-13T21:38:08.175Z,8.92
2023-01-13T21:40:36.383Z,8.67
2023-01-13T21:43:21.909Z,8.71
2023-01-13T21:46:08.588Z,8.59
2023-01-13T21:48:36.714Z,8.65
2023-01-13T21:51:04.976Z,8.56
2023-01-13T21:53:32.818Z,8.57
2023-01-13T21:56:00.716Z,8.47
2023-01-13T21:58:28.870Z,8.47
2023-01-13T22:01:03.723Z,8.45
2023-01-13T22:03:51.659Z,8.31
2023-01-13T22:06:19.621Z,8.28
2023-01-13T22:08:47.746Z,7.94
2023-01-13T22:11:16.129Z,7.90
2023-01-13T22:14:01.547Z,7.96
2023-01-13T22:16:31.676Z,8.26
2023-01-13T22:18:59.579Z,7.98
2023-01-13T22:21:27.329Z,8.07
2023-01-13T22:23:55.555Z,8.02
2023-01-13T22:26:23.464Z,8.05
2023-01-13T22:28:51.252Z,8.29
2023-01-13T22:31:23.477Z,7.91
2023-01-13T22:33:56.423Z,8.30
2023-01-13T22:36:25.140Z,8.21
2023-01-13T22:38:56.690Z,8.17
2023-01-13T22:41:24.968Z,7.97
2023-01-13T22:43:52.795Z,8.37
2023-01-13T22:46:20.533Z,8.18
2023-01-13T22:48:48.593Z,8.11
2023-01-13T22:51:19.102Z,8.34
2023-01-13T22:53:47.065Z,8.57
2023-01-13T22:56:22.260Z,8.66
2023-01-13T22:58:54.812Z,8.48
2023-01-13T23:01:23.569Z,8.51
2023-01-13T23:03:51.777Z,8.32
2023-01-13T23:06:23.455Z,8.40
2023-01-13T23:08:51.564Z,8.52
2023-01-13T23:11:23.476Z,8.41
2023-01-13T23:13:53.883Z,8.56
2023-01-13T23:16:22.088Z,8.22
2023-01-13T23:18:50.675Z,8.30
2023-01-13T23:21:24.475Z,8.02
2023-01-13T23:23:53.396Z,8.29
2023-01-13T23:26:21.895Z,8.46
2023-01-13T23:28:50.224Z,8.45
2023-01-13T23:31:22.265Z,8.32
2023-01-13T23:33:50.468Z,8.54
2023-01-13T23:36:23.405Z,8.73
2023-01-13T23:38:52.212Z,8.88
2023-01-13T23:41:23.370Z,8.72
2023-01-13T23:43:52.892Z,8.99
2023-01-13T23:46:22.159Z,8.98
2023-01-13T23:48:50.485Z,9.00
2023-01-13T23:51:20.865Z,8.88
2023-01-13T23:53:51.368Z,8.99
2023-01-13T23:56:22.050Z,8.81
2023-01-13T23:58:51.393Z,8.63
